Prosperity, Missouri
Current Conditions -  °F | °C
As of 11:53 AM on Friday 31 Oct 2014 (Local Time) from KJLN Reporting Station
Clear Clear  
Wind Chill: 37°   Ceiling: Unl
Heat Index: 44°   Visibility: 10mi
Dew Point: 29°   Wind: 15mph
Humidity: 55%   Direction: 10°N
Pressure: 30.43"   Gusts: 26mph
Location:  37.1074°N, 94.5218°W
Report Text: KJLN 311653Z 01013G23KT 10SM CLR 07/M02 A3043 RMK AO2 SLP305 T00671017
Loading
Personal Weather Stations






























Interactive Weather Map
Tropical Storm Tracking
New forecast layout! Learn more

10-Day Weather Forecast

Advertisements
Track Severe Weather on mobile